sensor_id;sensor_type;location;lat;lon;timestamp;P1;durP1;ratioP1;P2;durP2;ratioP2
6007;SDS011;3032;49.484;11.112;2023-12-14T09:03:46;27.60;;;16.95;;
6007;SDS011;3032;49.484;11.112;2023-12-14T09:06:12;30.23;;;17.93;;
6007;SDS011;3032;49.484;11.112;2023-12-14T09:08:37;27.63;;;17.10;;
6007;SDS011;3032;49.484;11.112;2023-12-14T09:11:04;35.28;;;18.80;;
6007;SDS011;3032;49.484;11.112;2023-12-14T09:13:30;34.00;;;18.50;;
6007;SDS011;3032;49.484;11.112;2023-12-14T09:15:56;28.43;;;16.27;;
6007;SDS011;3032;49.484;11.112;2023-12-14T09:18:21;28.00;;;16.77;;
6007;SDS011;3032;49.484;11.112;2023-12-14T09:20:48;33.80;;;16.75;;
6007;SDS011;3032;49.484;11.112;2023-12-14T09:23:14;25.77;;;14.75;;
6007;SDS011;3032;49.484;11.112;2023-12-14T09:25:40;30.48;;;15.23;;
6007;SDS011;3032;49.484;11.112;2023-12-14T09:28:06;23.73;;;15.40;;
6007;SDS011;3032;49.484;11.112;2023-12-14T09:30:32;26.02;;;14.75;;
6007;SDS011;3032;49.484;11.112;2023-12-14T09:32:58;22.92;;;14.40;;
6007;SDS011;3032;49.484;11.112;2023-12-14T09:35:23;29.73;;;16.90;;
6007;SDS011;3032;49.484;11.112;2023-12-14T09:37:49;24.97;;;13.83;;
6007;SDS011;3032;49.484;11.112;2023-12-14T09:40:15;27.07;;;15.27;;
6007;SDS011;3032;49.484;11.112;2023-12-14T09:42:41;28.85;;;17.17;;
6007;SDS011;3032;49.484;11.112;2023-12-14T09:45:07;27.77;;;15.40;;
6007;SDS011;3032;49.484;11.112;2023-12-14T09:47:34;22.85;;;14.57;;
6007;SDS011;3032;49.484;11.112;2023-12-14T09:50:01;21.88;;;14.63;;
6007;SDS011;3032;49.484;11.112;2023-12-14T09:52:28;26.60;;;16.38;;
6007;SDS011;3032;49.484;11.112;2023-12-14T09:54:54;23.93;;;16.03;;
6007;SDS011;3032;49.484;11.112;2023-12-14T09:57:19;29.37;;;17.20;;
6007;SDS011;3032;49.484;11.112;2023-12-14T09:59:52;27.93;;;16.30;;
6007;SDS011;3032;49.484;11.112;2023-12-14T10:02:18;27.83;;;15.90;;
6007;SDS011;3032;49.484;11.112;2023-12-14T10:04:45;17.73;;;12.98;;
6007;SDS011;3032;49.484;11.112;2023-12-14T10:07:11;22.98;;;13.82;;
6007;SDS011;3032;49.484;11.112;2023-12-14T10:09:37;21.27;;;13.53;;
6007;SDS011;3032;49.484;11.112;2023-12-14T10:12:04;19.17;;;12.47;;
6007;SDS011;3032;49.484;11.112;2023-12-14T10:14:32;22.08;;;13.65;;
6007;SDS011;3032;49.484;11.112;2023-12-14T10:16:58;23.20;;;13.77;;
6007;SDS011;3032;49.484;11.112;2023-12-14T10:19:25;19.80;;;13.40;;
6007;SDS011;3032;49.484;11.112;2023-12-14T10:21:51;26.50;;;14.52;;
6007;SDS011;3032;49.484;11.112;2023-12-14T10:24:18;19.80;;;14.05;;
6007;SDS011;3032;49.484;11.112;2023-12-14T10:26:45;21.90;;;14.82;;
6007;SDS011;3032;49.484;11.112;2023-12-14T10:29:11;22.10;;;15.88;;
6007;SDS011;3032;49.484;11.112;2023-12-14T10:31:37;23.90;;;13.70;;
6007;SDS011;3032;49.484;11.112;2023-12-14T10:34:03;18.85;;;14.02;;
6007;SDS011;3032;49.484;11.112;2023-12-14T10:36:29;19.95;;;13.02;;
6007;SDS011;3032;49.484;11.112;2023-12-14T10:38:59;14.15;;;11.02;;
6007;SDS011;3032;49.484;11.112;2023-12-14T10:41:26;23.92;;;11.75;;
6007;SDS011;3032;49.484;11.112;2023-12-14T10:43:55;18.80;;;12.82;;
6007;SDS011;3032;49.484;11.112;2023-12-14T10:46:21;17.85;;;13.10;;
6007;SDS011;3032;49.484;11.112;2023-12-14T10:48:49;18.52;;;12.50;;
6007;SDS011;3032;49.484;11.112;2023-12-14T10:51:16;17.15;;;11.80;;
6007;SDS011;3032;49.484;11.112;2023-12-14T10:53:44;18.02;;;13.88;;
6007;SDS011;3032;49.484;11.112;2023-12-14T10:56:12;16.02;;;12.55;;
6007;SDS011;3032;49.484;11.112;2023-12-14T10:58:45;17.48;;;13.40;;
6007;SDS011;3032;49.484;11.112;2023-12-14T11:01:15;24.02;;;13.90;;
6007;SDS011;3032;49.484;11.112;2023-12-14T11:03:43;19.30;;;13.00;;
6007;SDS011;3032;49.484;11.112;2023-12-14T11:08:53;22.17;;;14.07;;
6007;SDS011;3032;49.484;11.112;2023-12-14T11:11:20;23.52;;;14.20;;
6007;SDS011;3032;49.484;11.112;2023-12-14T11:13:47;24.97;;;14.37;;
6007;SDS011;3032;49.484;11.112;2023-12-14T13:22:53;24.85;;;13.70;;
6007;SDS011;3032;49.484;11.112;2023-12-14T13:25:19;25.23;;;14.73;;
6007;SDS011;3032;49.484;11.112;2023-12-14T13:27:47;21.58;;;13.90;;
6007;SDS011;3032;49.484;11.112;2023-12-14T13:30:13;19.43;;;14.27;;
6007;SDS011;3032;49.484;11.112;2023-12-14T13:32:42;19.27;;;13.32;;
6007;SDS011;3032;49.484;11.112;2023-12-14T13:35:08;28.63;;;15.20;;
6007;SDS011;3032;49.484;11.112;2023-12-14T13:37:34;23.00;;;15.25;;
6007;SDS011;3032;49.484;11.112;2023-12-14T13:40:00;30.87;;;16.43;;
6007;SDS011;3032;49.484;11.112;2023-12-14T13:42:25;29.67;;;15.73;;
6007;SDS011;3032;49.484;11.112;2023-12-14T13:44:51;30.80;;;17.23;;
6007;SDS011;3032;49.484;11.112;2023-12-14T13:47:17;34.13;;;16.80;;
6007;SDS011;3032;49.484;11.112;2023-12-14T13:49:42;26.03;;;15.77;;
6007;SDS011;3032;49.484;11.112;2023-12-14T13:52:08;27.17;;;16.63;;
6007;SDS011;3032;49.484;11.112;2023-12-14T13:54:34;26.38;;;14.25;;
6007;SDS011;3032;49.484;11.112;2023-12-14T13:57:01;28.15;;;16.60;;
6007;SDS011;3032;49.484;11.112;2023-12-14T13:59:27;29.55;;;17.67;;
6007;SDS011;3032;49.484;11.112;2023-12-14T14:01:53;30.90;;;16.83;;
6007;SDS011;3032;49.484;11.112;2023-12-14T14:04:18;32.97;;;17.20;;
6007;SDS011;3032;49.484;11.112;2023-12-14T14:06:44;23.73;;;15.10;;
6007;SDS011;3032;49.484;11.112;2023-12-14T14:09:10;25.40;;;15.20;;
6007;SDS011;3032;49.484;11.112;2023-12-14T14:11:36;22.77;;;14.00;;
6007;SDS011;3032;49.484;11.112;2023-12-14T14:14:02;23.37;;;13.70;;
6007;SDS011;3032;49.484;11.112;2023-12-14T14:16:28;20.63;;;13.68;;
6007;SDS011;3032;49.484;11.112;2023-12-14T14:18:54;20.73;;;12.80;;
6007;SDS011;3032;49.484;11.112;2023-12-14T14:21:20;23.60;;;13.03;;
6007;SDS011;3032;49.484;11.112;2023-12-14T14:23:45;16.70;;;11.03;;
6007;SDS011;3032;49.484;11.112;2023-12-14T14:26:11;17.20;;;10.70;;
6007;SDS011;3032;49.484;11.112;2023-12-14T14:28:36;20.50;;;10.17;;
6007;SDS011;3032;49.484;11.112;2023-12-14T14:31:02;14.40;;;9.50;;
6007;SDS011;3032;49.484;11.112;2023-12-14T14:33:28;19.17;;;10.50;;
6007;SDS011;3032;49.484;11.112;2023-12-14T14:35:54;22.80;;;13.47;;
6007;SDS011;3032;49.484;11.112;2023-12-14T14:38:19;31.13;;;18.93;;
6007;SDS011;3032;49.484;11.112;2023-12-14T14:40:45;17.30;;;11.63;;
6007;SDS011;3032;49.484;11.112;2023-12-14T14:43:11;16.80;;;11.37;;
6007;SDS011;3032;49.484;11.112;2023-12-14T14:45:36;11.23;;;8.20;;
6007;SDS011;3032;49.484;11.112;2023-12-14T14:48:03;15.10;;;10.50;;
6007;SDS011;3032;49.484;11.112;2023-12-14T14:50:30;11.93;;;9.38;;
6007;SDS011;3032;49.484;11.112;2023-12-14T14:52:57;15.32;;;11.65;;
6007;SDS011;3032;49.484;11.112;2023-12-14T14:55:23;15.00;;;10.00;;
6007;SDS011;3032;49.484;11.112;2023-12-14T14:57:50;18.98;;;9.10;;
6007;SDS011;3032;49.484;11.112;2023-12-14T15:00:16;17.85;;;10.43;;
6007;SDS011;3032;49.484;11.112;2023-12-14T15:02:42;13.57;;;9.05;;
6007;SDS011;3032;49.484;11.112;2023-12-14T15:05:08;13.10;;;8.37;;
6007;SDS011;3032;49.484;11.112;2023-12-14T15:07:34;12.17;;;8.77;;
6007;SDS011;3032;49.484;11.112;2023-12-14T15:09:59;14.10;;;9.80;;
6007;SDS011;3032;49.484;11.112;2023-12-14T15:12:25;12.60;;;8.70;;
6007;SDS011;3032;49.484;11.112;2023-12-14T15:14:50;12.20;;;7.90;;
6007;SDS011;3032;49.484;11.112;2023-12-14T15:17:16;9.90;;;8.40;;
6007;SDS011;3032;49.484;11.112;2023-12-14T15:19:43;11.07;;;8.00;;
6007;SDS011;3032;49.484;11.112;2023-12-14T15:22:11;16.77;;;9.00;;
6007;SDS011;3032;49.484;11.112;2023-12-14T15:24:38;13.93;;;8.70;;
6007;SDS011;3032;49.484;11.112;2023-12-14T15:27:03;9.33;;;8.20;;
6007;SDS011;3032;49.484;11.112;2023-12-14T15:29:29;10.90;;;7.60;;
6007;SDS011;3032;49.484;11.112;2023-12-14T15:31:54;11.13;;;8.17;;
6007;SDS011;3032;49.484;11.112;2023-12-14T15:34:20;16.17;;;9.00;;
6007;SDS011;3032;49.484;11.112;2023-12-14T15:36:46;10.40;;;8.30;;
6007;SDS011;3032;49.484;11.112;2023-12-14T15:39:11;11.07;;;8.07;;
6007;SDS011;3032;49.484;11.112;2023-12-14T15:41:37;13.43;;;9.30;;
6007;SDS011;3032;49.484;11.112;2023-12-14T15:44:02;11.80;;;9.07;;
6007;SDS011;3032;49.484;11.112;2023-12-14T15:46:28;12.27;;;8.50;;
6007;SDS011;3032;49.484;11.112;2023-12-14T15:48:56;15.40;;;10.37;;
6007;SDS011;3032;49.484;11.112;2023-12-14T15:51:22;13.50;;;9.68;;
6007;SDS011;3032;49.484;11.112;2023-12-14T15:53:48;14.90;;;10.00;;
6007;SDS011;3032;49.484;11.112;2023-12-14T15:56:14;15.25;;;10.80;;
6007;SDS011;3032;49.484;11.112;2023-12-14T15:58:40;12.40;;;8.73;;
6007;SDS011;3032;49.484;11.112;2023-12-14T16:01:08;14.33;;;11.00;;
6007;SDS011;3032;49.484;11.112;2023-12-14T16:03:35;15.05;;;11.38;;
6007;SDS011;3032;49.484;11.112;2023-12-14T16:06:03;13.30;;;10.27;;
6007;SDS011;3032;49.484;11.112;2023-12-14T16:08:29;12.87;;;9.90;;
6007;SDS011;3032;49.484;11.112;2023-12-14T16:10:55;16.20;;;9.90;;
6007;SDS011;3032;49.484;11.112;2023-12-14T16:13:20;15.23;;;10.80;;
6007;SDS011;3032;49.484;11.112;2023-12-14T16:15:49;14.50;;;9.93;;
6007;SDS011;3032;49.484;11.112;2023-12-14T16:18:14;14.10;;;10.20;;
6007;SDS011;3032;49.484;11.112;2023-12-14T16:20:42;11.98;;;8.93;;
6007;SDS011;3032;49.484;11.112;2023-12-14T16:23:08;13.23;;;10.27;;
6007;SDS011;3032;49.484;11.112;2023-12-14T16:25:33;13.97;;;10.73;;
6007;SDS011;3032;49.484;11.112;2023-12-14T16:27:59;13.50;;;9.80;;
6007;SDS011;3032;49.484;11.112;2023-12-14T16:30:25;11.43;;;8.83;;
6007;SDS011;3032;49.484;11.112;2023-12-14T16:32:50;12.07;;;8.73;;
6007;SDS011;3032;49.484;11.112;2023-12-14T16:35:17;11.52;;;8.48;;
6007;SDS011;3032;49.484;11.112;2023-12-14T16:37:42;13.60;;;8.60;;
6007;SDS011;3032;49.484;11.112;2023-12-14T16:40:08;10.80;;;7.47;;
6007;SDS011;3032;49.484;11.112;2023-12-14T16:42:34;11.27;;;8.15;;
6007;SDS011;3032;49.484;11.112;2023-12-14T16:44:59;12.40;;;9.30;;
6007;SDS011;3032;49.484;11.112;2023-12-14T16:47:25;14.33;;;9.20;;
6007;SDS011;3032;49.484;11.112;2023-12-14T16:49:50;13.03;;;9.20;;
6007;SDS011;3032;49.484;11.112;2023-12-14T16:52:16;16.50;;;10.10;;
6007;SDS011;3032;49.484;11.112;2023-12-14T16:54:43;13.45;;;8.10;;
6007;SDS011;3032;49.484;11.112;2023-12-14T16:57:10;9.50;;;8.30;;
6007;SDS011;3032;49.484;11.112;2023-12-14T16:59:35;9.67;;;8.10;;
6007;SDS011;3032;49.484;11.112;2023-12-14T17:02:03;12.65;;;9.02;;
6007;SDS011;3032;49.484;11.112;2023-12-14T17:04:28;13.05;;;9.05;;
6007;SDS011;3032;49.484;11.112;2023-12-14T17:06:54;13.73;;;10.30;;
6007;SDS011;3032;49.484;11.112;2023-12-14T17:09:20;8.63;;;7.20;;
6007;SDS011;3032;49.484;11.112;2023-12-14T17:11:47;6.10;;;5.50;;
6007;SDS011;3032;49.484;11.112;2023-12-14T17:14:13;5.33;;;4.83;;
6007;SDS011;3032;49.484;11.112;2023-12-14T17:16:39;5.87;;;5.27;;
6007;SDS011;3032;49.484;11.112;2023-12-14T17:19:04;4.67;;;4.27;;
6007;SDS011;3032;49.484;11.112;2023-12-14T17:21:30;4.20;;;3.80;;
6007;SDS011;3032;49.484;11.112;2023-12-14T17:23:56;4.70;;;4.30;;
6007;SDS011;3032;49.484;11.112;2023-12-14T17:26:22;4.10;;;3.70;;
6007;SDS011;3032;49.484;11.112;2023-12-14T17:28:49;4.28;;;3.88;;
6007;SDS011;3032;49.484;11.112;2023-12-14T17:31:17;3.55;;;3.25;;
6007;SDS011;3032;49.484;11.112;2023-12-14T17:33:44;3.58;;;3.33;;
6007;SDS011;3032;49.484;11.112;2023-12-14T17:36:09;3.83;;;3.53;;
6007;SDS011;3032;49.484;11.112;2023-12-14T17:38:35;3.37;;;3.07;;
6007;SDS011;3032;49.484;11.112;2023-12-14T17:41:01;3.40;;;3.20;;
6007;SDS011;3032;49.484;11.112;2023-12-14T17:43:30;3.63;;;3.42;;
6007;SDS011;3032;49.484;11.112;2023-12-14T17:45:59;3.60;;;3.35;;
6007;SDS011;3032;49.484;11.112;2023-12-14T17:48:25;3.42;;;3.22;;
6007;SDS011;3032;49.484;11.112;2023-12-14T17:50:51;3.30;;;3.10;;
6007;SDS011;3032;49.484;11.112;2023-12-14T17:53:16;3.70;;;3.40;;
6007;SDS011;3032;49.484;11.112;2023-12-14T17:55:42;3.07;;;2.87;;
6007;SDS011;3032;49.484;11.112;2023-12-14T17:58:07;2.70;;;2.60;;
6007;SDS011;3032;49.484;11.112;2023-12-14T18:00:33;3.30;;;3.10;;
6007;SDS011;3032;49.484;11.112;2023-12-14T18:02:59;5.17;;;3.67;;
6007;SDS011;3032;49.484;11.112;2023-12-14T18:05:24;4.03;;;3.73;;
6007;SDS011;3032;49.484;11.112;2023-12-14T18:07:52;4.10;;;3.80;;
6007;SDS011;3032;49.484;11.112;2023-12-14T18:10:19;4.50;;;4.10;;
6007;SDS011;3032;49.484;11.112;2023-12-14T18:12:44;4.60;;;4.30;;
6007;SDS011;3032;49.484;11.112;2023-12-14T18:15:11;3.80;;;3.50;;
6007;SDS011;3032;49.484;11.112;2023-12-14T18:17:36;4.33;;;3.93;;
6007;SDS011;3032;49.484;11.112;2023-12-14T18:20:02;4.17;;;3.77;;
6007;SDS011;3032;49.484;11.112;2023-12-14T18:22:28;3.90;;;3.60;;
6007;SDS011;3032;49.484;11.112;2023-12-14T18:24:53;4.00;;;3.70;;
6007;SDS011;3032;49.484;11.112;2023-12-14T18:27:22;4.88;;;4.43;;
6007;SDS011;3032;49.484;11.112;2023-12-14T18:29:49;5.43;;;5.00;;
6007;SDS011;3032;49.484;11.112;2023-12-14T18:32:14;5.70;;;5.03;;
6007;SDS011;3032;49.484;11.112;2023-12-14T18:34:40;6.63;;;5.20;;
6007;SDS011;3032;49.484;11.112;2023-12-14T18:37:06;5.82;;;5.32;;
6007;SDS011;3032;49.484;11.112;2023-12-14T18:39:32;6.60;;;5.57;;
6007;SDS011;3032;49.484;11.112;2023-12-14T18:41:57;5.17;;;4.57;;
6007;SDS011;3032;49.484;11.112;2023-12-14T18:44:23;4.93;;;4.43;;
6007;SDS011;3032;49.484;11.112;2023-12-14T18:46:48;5.13;;;4.63;;
6007;SDS011;3032;49.484;11.112;2023-12-14T18:49:14;4.43;;;4.03;;
6007;SDS011;3032;49.484;11.112;2023-12-14T18:51:39;4.40;;;4.00;;
6007;SDS011;3032;49.484;11.112;2023-12-14T18:54:05;3.92;;;3.63;;
6007;SDS011;3032;49.484;11.112;2023-12-14T18:56:31;4.50;;;4.10;;
6007;SDS011;3032;49.484;11.112;2023-12-14T18:58:57;4.70;;;4.30;;
6007;SDS011;3032;49.484;11.112;2023-12-14T19:01:22;4.50;;;4.10;;
6007;SDS011;3032;49.484;11.112;2023-12-14T19:03:48;4.33;;;4.03;;
6007;SDS011;3032;49.484;11.112;2023-12-14T19:06:14;4.90;;;4.50;;
6007;SDS011;3032;49.484;11.112;2023-12-14T19:08:43;5.38;;;4.80;;
6007;SDS011;3032;49.484;11.112;2023-12-14T19:11:18;4.45;;;4.03;;
6007;SDS011;3032;49.484;11.112;2023-12-14T19:13:44;5.10;;;4.70;;
6007;SDS011;3032;49.484;11.112;2023-12-14T19:16:10;5.35;;;4.60;;
6007;SDS011;3032;49.484;11.112;2023-12-14T19:18:36;5.28;;;4.75;;
6007;SDS011;3032;49.484;11.112;2023-12-14T19:21:02;5.18;;;4.63;;
6007;SDS011;3032;49.484;11.112;2023-12-14T19:23:28;5.87;;;4.53;;
6007;SDS011;3032;49.484;11.112;2023-12-14T19:25:54;5.37;;;4.83;;
6007;SDS011;3032;49.484;11.112;2023-12-14T19:28:23;5.20;;;4.63;;
6007;SDS011;3032;49.484;11.112;2023-12-14T19:30:49;4.03;;;3.70;;
6007;SDS011;3032;49.484;11.112;2023-12-14T19:33:15;6.40;;;5.03;;
6007;SDS011;3032;49.484;11.112;2023-12-14T19:35:42;5.32;;;4.43;;
6007;SDS011;3032;49.484;11.112;2023-12-14T19:38:08;4.50;;;4.10;;
6007;SDS011;3032;49.484;11.112;2023-12-14T19:40:34;5.40;;;4.90;;
6007;SDS011;3032;49.484;11.112;2023-12-14T19:42:59;6.00;;;5.37;;
6007;SDS011;3032;49.484;11.112;2023-12-14T19:45:25;5.13;;;4.63;;
6007;SDS011;3032;49.484;11.112;2023-12-14T19:47:50;5.27;;;4.77;;
6007;SDS011;3032;49.484;11.112;2023-12-14T19:50:16;5.87;;;4.73;;
6007;SDS011;3032;49.484;11.112;2023-12-14T19:52:41;7.73;;;5.23;;
6007;SDS011;3032;49.484;11.112;2023-12-14T19:55:07;6.03;;;5.43;;
6007;SDS011;3032;49.484;11.112;2023-12-14T19:57:35;6.18;;;5.38;;
6007;SDS011;3032;49.484;11.112;2023-12-14T20:00:01;5.97;;;5.40;;
6007;SDS011;3032;49.484;11.112;2023-12-14T20:02:27;7.55;;;5.78;;
6007;SDS011;3032;49.484;11.112;2023-12-14T20:04:53;9.23;;;5.33;;
6007;SDS011;3032;49.484;11.112;2023-12-14T20:07:18;5.27;;;4.80;;
6007;SDS011;3032;49.484;11.112;2023-12-14T20:09:44;6.57;;;5.90;;
6007;SDS011;3032;49.484;11.112;2023-12-14T20:12:12;6.85;;;5.50;;
6007;SDS011;3032;49.484;11.112;2023-12-14T20:14:37;9.47;;;5.90;;
6007;SDS011;3032;49.484;11.112;2023-12-14T20:17:03;7.70;;;5.57;;
6007;SDS011;3032;49.484;11.112;2023-12-14T20:19:30;6.32;;;5.72;;
6007;SDS011;3032;49.484;11.112;2023-12-14T20:21:55;6.37;;;5.70;;
6007;SDS011;3032;49.484;11.112;2023-12-14T20:24:21;7.30;;;5.17;;
6007;SDS011;3032;49.484;11.112;2023-12-14T20:26:46;7.47;;;6.13;;
6007;SDS011;3032;49.484;11.112;2023-12-14T20:29:12;5.97;;;5.37;;
6007;SDS011;3032;49.484;11.112;2023-12-14T20:31:39;6.65;;;5.50;;
6007;SDS011;3032;49.484;11.112;2023-12-14T20:34:04;5.97;;;5.37;;
6007;SDS011;3032;49.484;11.112;2023-12-14T20:36:30;7.90;;;6.47;;
6007;SDS011;3032;49.484;11.112;2023-12-14T20:38:58;6.63;;;5.45;;
6007;SDS011;3032;49.484;11.112;2023-12-14T20:41:27;7.47;;;6.05;;
6007;SDS011;3032;49.484;11.112;2023-12-14T20:43:52;7.23;;;6.13;;
6007;SDS011;3032;49.484;11.112;2023-12-14T20:46:18;9.37;;;5.60;;
6007;SDS011;3032;49.484;11.112;2023-12-14T20:48:43;6.57;;;5.50;;
6007;SDS011;3032;49.484;11.112;2023-12-14T20:51:09;6.60;;;5.50;;
6007;SDS011;3032;49.484;11.112;2023-12-14T20:53:35;6.50;;;5.75;;
6007;SDS011;3032;49.484;11.112;2023-12-14T20:56:01;7.77;;;6.40;;
6007;SDS011;3032;49.484;11.112;2023-12-14T20:58:27;6.15;;;5.55;;
6007;SDS011;3032;49.484;11.112;2023-12-14T21:00:53;8.63;;;6.47;;
6007;SDS011;3032;49.484;11.112;2023-12-14T21:03:18;6.57;;;5.93;;
6007;SDS011;3032;49.484;11.112;2023-12-14T21:05:44;7.17;;;5.73;;
6007;SDS011;3032;49.484;11.112;2023-12-14T21:08:09;10.60;;;6.10;;
6007;SDS011;3032;49.484;11.112;2023-12-14T21:10:35;6.50;;;5.60;;
6007;SDS011;3032;49.484;11.112;2023-12-14T21:13:00;7.40;;;6.17;;
6007;SDS011;3032;49.484;11.112;2023-12-14T21:15:26;8.03;;;6.10;;
6007;SDS011;3032;49.484;11.112;2023-12-14T21:17:51;7.40;;;5.97;;
6007;SDS011;3032;49.484;11.112;2023-12-14T21:20:17;9.50;;;6.40;;
6007;SDS011;3032;49.484;11.112;2023-12-14T21:22:42;12.10;;;6.63;;
6007;SDS011;3032;49.484;11.112;2023-12-14T21:25:08;11.50;;;7.73;;
6007;SDS011;3032;49.484;11.112;2023-12-14T21:27:33;9.27;;;7.30;;
6007;SDS011;3032;49.484;11.112;2023-12-14T21:30:16;8.32;;;6.82;;
6007;SDS011;3032;49.484;11.112;2023-12-14T21:32:43;11.68;;;7.90;;
6007;SDS011;3032;49.484;11.112;2023-12-14T21:35:10;11.55;;;7.80;;
6007;SDS011;3032;49.484;11.112;2023-12-14T21:37:36;10.47;;;7.97;;
6007;SDS011;3032;49.484;11.112;2023-12-14T21:40:02;9.65;;;7.28;;
6007;SDS011;3032;49.484;11.112;2023-12-14T21:42:30;10.88;;;7.30;;
6007;SDS011;3032;49.484;11.112;2023-12-14T21:44:56;11.37;;;8.00;;
6007;SDS011;3032;49.484;11.112;2023-12-14T21:47:21;10.03;;;7.97;;
6007;SDS011;3032;49.484;11.112;2023-12-14T21:49:47;7.33;;;6.50;;
6007;SDS011;3032;49.484;11.112;2023-12-14T21:52:12;9.50;;;7.40;;
6007;SDS011;3032;49.484;11.112;2023-12-14T21:54:38;10.07;;;6.43;;
6007;SDS011;3032;49.484;11.112;2023-12-14T21:57:03;8.13;;;6.80;;
6007;SDS011;3032;49.484;11.112;2023-12-14T21:59:29;7.00;;;6.30;;
6007;SDS011;3032;49.484;11.112;2023-12-14T22:01:56;8.85;;;6.93;;
6007;SDS011;3032;49.484;11.112;2023-12-14T22:04:21;9.03;;;7.33;;
6007;SDS011;3032;49.484;11.112;2023-12-14T22:06:47;8.10;;;6.70;;
6007;SDS011;3032;49.484;11.112;2023-12-14T22:09:12;8.70;;;7.03;;
6007;SDS011;3032;49.484;11.112;2023-12-14T22:11:38;7.00;;;6.30;;
6007;SDS011;3032;49.484;11.112;2023-12-14T22:14:05;12.27;;;5.82;;
6007;SDS011;3032;49.484;11.112;2023-12-14T22:16:30;9.57;;;6.60;;
6007;SDS011;3032;49.484;11.112;2023-12-14T22:18:57;8.68;;;7.25;;
6007;SDS011;3032;49.484;11.112;2023-12-14T22:21:23;8.57;;;6.77;;
6007;SDS011;3032;49.484;11.112;2023-12-14T22:23:48;7.17;;;5.83;;
6007;SDS011;3032;49.484;11.112;2023-12-14T22:26:14;7.90;;;6.60;;
6007;SDS011;3032;49.484;11.112;2023-12-14T22:28:40;9.40;;;6.77;;
6007;SDS011;3032;49.484;11.112;2023-12-14T22:31:05;8.53;;;6.70;;
6007;SDS011;3032;49.484;11.112;2023-12-14T22:33:31;9.20;;;7.33;;
6007;SDS011;3032;49.484;11.112;2023-12-14T22:35:56;9.97;;;7.30;;
6007;SDS011;3032;49.484;11.112;2023-12-14T22:38:22;8.50;;;6.73;;
6007;SDS011;3032;49.484;11.112;2023-12-14T22:40:48;8.33;;;7.17;;
6007;SDS011;3032;49.484;11.112;2023-12-14T22:43:13;7.60;;;6.60;;
6007;SDS011;3032;49.484;11.112;2023-12-14T22:45:39;7.50;;;6.70;;
6007;SDS011;3032;49.484;11.112;2023-12-14T22:48:04;7.90;;;6.37;;
6007;SDS011;3032;49.484;11.112;2023-12-14T22:50:30;9.57;;;6.20;;
6007;SDS011;3032;49.484;11.112;2023-12-14T22:52:55;7.73;;;6.60;;
6007;SDS011;3032;49.484;11.112;2023-12-14T22:55:21;7.30;;;6.37;;
6007;SDS011;3032;49.484;11.112;2023-12-14T22:57:47;8.60;;;6.50;;
6007;SDS011;3032;49.484;11.112;2023-12-14T23:00:12;7.30;;;6.07;;
6007;SDS011;3032;49.484;11.112;2023-12-14T23:02:39;8.15;;;6.65;;
6007;SDS011;3032;49.484;11.112;2023-12-14T23:05:04;8.35;;;6.60;;
6007;SDS011;3032;49.484;11.112;2023-12-14T23:07:30;8.50;;;6.63;;
6007;SDS011;3032;49.484;11.112;2023-12-14T23:09:56;6.50;;;5.90;;
6007;SDS011;3032;49.484;11.112;2023-12-14T23:12:21;10.23;;;7.40;;
6007;SDS011;3032;49.484;11.112;2023-12-14T23:14:47;7.80;;;7.00;;
6007;SDS011;3032;49.484;11.112;2023-12-14T23:17:13;9.68;;;7.18;;
6007;SDS011;3032;49.484;11.112;2023-12-14T23:19:39;8.40;;;6.75;;
6007;SDS011;3032;49.484;11.112;2023-12-14T23:22:04;11.47;;;6.80;;
6007;SDS011;3032;49.484;11.112;2023-12-14T23:24:30;9.97;;;7.30;;
6007;SDS011;3032;49.484;11.112;2023-12-14T23:26:55;12.00;;;8.00;;
6007;SDS011;3032;49.484;11.112;2023-12-14T23:29:21;10.97;;;7.60;;
6007;SDS011;3032;49.484;11.112;2023-12-14T23:31:46;10.93;;;7.33;;
6007;SDS011;3032;49.484;11.112;2023-12-14T23:34:12;9.73;;;7.30;;
6007;SDS011;3032;49.484;11.112;2023-12-14T23:36:37;7.60;;;6.00;;
6007;SDS011;3032;49.484;11.112;2023-12-14T23:39:03;9.70;;;6.63;;
6007;SDS011;3032;49.484;11.112;2023-12-14T23:41:28;7.97;;;6.50;;
6007;SDS011;3032;49.484;11.112;2023-12-14T23:43:54;8.50;;;6.37;;
6007;SDS011;3032;49.484;11.112;2023-12-14T23:46:20;7.90;;;7.10;;
6007;SDS011;3032;49.484;11.112;2023-12-14T23:48:46;8.27;;;6.70;;
6007;SDS011;3032;49.484;11.112;2023-12-14T23:51:13;7.53;;;6.13;;
6007;SDS011;3032;49.484;11.112;2023-12-14T23:53:39;6.95;;;6.25;;
6007;SDS011;3032;49.484;11.112;2023-12-14T23:56:05;7.53;;;6.63;;
6007;SDS011;3032;49.484;11.112;2023-12-14T23:58:31;8.30;;;6.88;;
